createdAt,value
2023-04-27T00:00:01.378Z,3.98
2023-04-27T00:01:12.768Z,3.98
2023-04-27T00:02:16.589Z,3.99
2023-04-27T00:03:19.875Z,3.97
2023-04-27T00:04:23.229Z,3.96
2023-04-27T00:05:26.579Z,3.98
2023-04-27T00:06:29.705Z,3.96
2023-04-27T00:07:32.829Z,3.93
2023-04-27T00:08:35.877Z,3.92
2023-04-27T00:09:39.098Z,3.90
2023-04-27T00:10:42.113Z,3.88
2023-04-27T00:11:45.053Z,3.85
2023-04-27T00:12:47.964Z,3.85
2023-04-27T00:13:51.036Z,3.80
2023-04-27T00:14:53.953Z,3.78
2023-04-27T00:15:57.185Z,3.79
2023-04-27T00:17:00.130Z,3.76
2023-04-27T00:18:03.071Z,3.74
2023-04-27T00:19:06.096Z,3.73
2023-04-27T00:20:11.886Z,3.75
2023-04-27T00:21:14.864Z,3.74
2023-04-27T00:22:18.483Z,3.70
2023-04-27T00:23:21.745Z,3.68
2023-04-27T00:24:24.708Z,3.67
2023-04-27T00:25:27.914Z,3.69
2023-04-27T00:26:30.994Z,3.69
2023-04-27T00:27:35.341Z,3.68
2023-04-27T00:28:38.202Z,3.66
2023-04-27T00:29:44.097Z,3.65
2023-04-27T00:30:47.279Z,3.67
2023-04-27T00:31:50.148Z,3.62
2023-04-27T00:32:53.091Z,3.60
2023-04-27T00:33:56.075Z,3.63
2023-04-27T00:34:58.928Z,3.59
2023-04-27T00:36:02.498Z,3.60
2023-04-27T00:37:05.883Z,3.58
2023-04-27T00:38:09.140Z,3.59
2023-04-27T00:39:12.451Z,3.58
2023-04-27T00:40:15.778Z,3.54
2023-04-27T00:41:18.674Z,3.52
2023-04-27T00:42:21.690Z,3.51
2023-04-27T00:43:27.309Z,3.51
2023-04-27T00:44:30.900Z,3.47
2023-04-27T00:45:41.552Z,3.45
2023-04-27T00:46:44.592Z,3.46
2023-04-27T00:47:49.900Z,3.44
2023-04-27T00:48:54.429Z,3.43
2023-04-27T00:49:57.534Z,3.39
2023-04-27T00:51:01.479Z,3.38
2023-04-27T00:52:04.501Z,3.39
2023-04-27T00:53:07.960Z,3.38
2023-04-27T00:54:11.300Z,3.34
2023-04-27T00:55:14.210Z,3.34
2023-04-27T00:56:17.316Z,3.35
2023-04-27T00:57:20.600Z,3.32
2023-04-27T00:58:23.592Z,3.33
2023-04-27T00:59:26.790Z,3.31
2023-04-27T01:00:29.837Z,3.31
2023-04-27T01:01:33.376Z,3.29
2023-04-27T01:02:37.114Z,3.29
2023-04-27T01:03:40.399Z,3.31
2023-04-27T01:04:43.651Z,3.29
2023-04-27T01:05:46.499Z,3.32
2023-04-27T01:06:50.835Z,3.32
2023-04-27T01:07:53.739Z,3.28
2023-04-27T01:08:56.662Z,3.30
2023-04-27T01:09:59.545Z,3.30
2023-04-27T01:11:02.386Z,3.27
2023-04-27T01:12:05.592Z,3.27
2023-04-27T01:13:08.465Z,3.29
2023-04-27T01:14:11.539Z,3.28
2023-04-27T01:15:14.407Z,3.29
2023-04-27T01:16:20.374Z,3.26
2023-04-27T01:17:23.276Z,3.29
2023-04-27T01:18:26.500Z,3.25
2023-04-27T01:19:29.439Z,3.25
2023-04-27T01:20:32.554Z,3.24
2023-04-27T01:21:35.782Z,3.23
2023-04-27T01:22:39.087Z,3.22
2023-04-27T01:23:42.118Z,3.21
2023-04-27T01:24:47.177Z,3.22
2023-04-27T01:25:50.022Z,3.21
2023-04-27T01:26:54.071Z,3.18
2023-04-27T01:27:56.963Z,3.20
2023-04-27T01:29:00.066Z,3.21
2023-04-27T01:30:03.561Z,3.19
2023-04-27T01:31:07.011Z,3.18
2023-04-27T01:32:09.916Z,3.19
2023-04-27T01:33:13.203Z,3.19
2023-04-27T01:34:16.205Z,3.14
2023-04-27T01:35:23.450Z,3.17
2023-04-27T01:36:27.829Z,3.15
2023-04-27T01:37:32.135Z,3.14
2023-04-27T01:38:35.829Z,3.11
2023-04-27T01:39:38.935Z,3.10
2023-04-27T01:40:44.212Z,3.11
2023-04-27T01:41:47.104Z,3.10
2023-04-27T01:42:50.011Z,3.10
2023-04-27T01:43:52.914Z,3.07
2023-04-27T01:44:55.781Z,3.06
2023-04-27T01:46:08.462Z,3.11
2023-04-27T01:47:11.892Z,3.08
2023-04-27T01:48:16.606Z,3.06
2023-04-27T01:49:20.498Z,3.08
2023-04-27T01:50:25.206Z,3.09
2023-04-27T01:51:28.494Z,3.05
2023-04-27T01:52:31.393Z,3.05
2023-04-27T01:53:34.941Z,3.08
2023-04-27T01:54:37.765Z,3.04
2023-04-27T01:55:42.538Z,3.03
2023-04-27T01:56:45.431Z,3.05
2023-04-27T01:57:48.312Z,3.03
2023-04-27T01:58:53.501Z,3.04
2023-04-27T01:59:56.450Z,3.03
2023-04-27T02:00:59.399Z,3.06
2023-04-27T02:02:02.356Z,3.05
2023-04-27T02:03:06.070Z,3.02
2023-04-27T02:04:09.094Z,3.04
2023-04-27T02:05:12.079Z,3.01
2023-04-27T02:06:14.907Z,3.04
2023-04-27T02:07:17.960Z,3.01
2023-04-27T02:08:21.119Z,3.02
2023-04-27T02:09:24.032Z,3.02
2023-04-27T02:10:26.946Z,2.98
2023-04-27T02:11:32.849Z,3.01
2023-04-27T02:12:35.729Z,2.98
2023-04-27T02:13:39.505Z,3.01
2023-04-27T02:14:42.856Z,2.98
2023-04-27T02:15:45.942Z,2.97
2023-04-27T02:16:48.880Z,2.97
2023-04-27T02:17:52.413Z,2.96
2023-04-27T02:18:55.452Z,2.99
2023-04-27T02:19:58.400Z,2.98
2023-04-27T02:21:07.822Z,2.96
2023-04-27T02:22:12.623Z,2.97
2023-04-27T02:23:15.530Z,2.96
2023-04-27T02:24:18.793Z,2.97
2023-04-27T02:25:21.638Z,2.93
2023-04-27T02:26:29.514Z,2.96
2023-04-27T02:27:33.042Z,2.96
2023-04-27T02:28:36.404Z,2.93
2023-04-27T02:29:39.690Z,2.95
2023-04-27T02:30:43.203Z,2.95
2023-04-27T02:31:46.584Z,2.92
2023-04-27T02:32:49.774Z,2.92
2023-04-27T02:33:53.023Z,2.91
2023-04-27T02:34:56.983Z,2.91
2023-04-27T02:36:00.950Z,2.89
2023-04-27T02:37:04.752Z,2.89
2023-04-27T02:38:07.680Z,2.90
2023-04-27T02:39:13.398Z,2.88
2023-04-27T02:40:16.465Z,2.85
2023-04-27T02:41:19.336Z,2.82
2023-04-27T02:42:22.340Z,2.83
2023-04-27T02:43:25.268Z,2.83
2023-04-27T02:44:28.138Z,2.82
2023-04-27T02:45:31.028Z,2.78
2023-04-27T02:46:34.428Z,2.77
2023-04-27T02:47:37.653Z,2.76
2023-04-27T02:48:40.676Z,2.77
2023-04-27T02:49:43.994Z,2.75
2023-04-27T02:50:46.869Z,2.75
2023-04-27T02:51:50.457Z,2.79
2023-04-27T02:52:53.481Z,2.78
2023-04-27T02:53:56.473Z,2.79
2023-04-27T02:54:59.346Z,2.75
2023-04-27T02:56:02.192Z,2.76
2023-04-27T02:57:05.614Z,2.76
2023-04-27T02:58:08.623Z,2.79
2023-04-27T02:59:11.924Z,2.76
2023-04-27T03:00:15.486Z,2.77
2023-04-27T03:01:18.461Z,2.76
2023-04-27T03:02:21.584Z,2.77
2023-04-27T03:03:25.211Z,2.74
2023-04-27T03:04:28.529Z,2.75
2023-04-27T03:05:32.010Z,2.75
2023-04-27T03:06:34.987Z,2.74
2023-04-27T03:07:37.920Z,2.74
2023-04-27T03:08:41.297Z,2.75
2023-04-27T03:09:44.170Z,2.74
2023-04-27T03:10:47.085Z,2.77
2023-04-27T03:11:50.708Z,2.75
2023-04-27T03:12:53.589Z,2.74
2023-04-27T03:13:57.941Z,2.78
2023-04-27T03:15:01.218Z,2.76
2023-04-27T03:16:04.257Z,2.77
2023-04-27T03:17:07.195Z,2.78
2023-04-27T03:18:10.264Z,2.76
2023-04-27T03:19:13.461Z,2.76
2023-04-27T03:20:16.602Z,2.77
2023-04-27T03:21:19.536Z,2.75
2023-04-27T03:22:25.194Z,2.75
2023-04-27T03:23:28.095Z,2.74
2023-04-27T03:24:31.107Z,2.74
2023-04-27T03:25:34.098Z,2.75
2023-04-27T03:26:36.931Z,2.75
2023-04-27T03:27:40.506Z,2.78
2023-04-27T03:28:43.394Z,2.75
2023-04-27T03:29:46.350Z,2.78
2023-04-27T03:30:49.225Z,2.75
2023-04-27T03:31:52.162Z,2.76
2023-04-27T03:32:55.231Z,2.76
2023-04-27T03:33:58.346Z,2.79
2023-04-27T03:35:01.188Z,2.79
2023-04-27T03:36:06.650Z,2.76
2023-04-27T03:37:09.702Z,2.76
2023-04-27T03:38:13.127Z,2.77
2023-04-27T03:39:16.526Z,2.75
2023-04-27T03:40:19.784Z,2.78
2023-04-27T03:41:23.012Z,2.79
2023-04-27T03:42:25.932Z,2.80
2023-04-27T03:43:29.182Z,2.77
2023-04-27T03:44:33.614Z,2.78
2023-04-27T03:45:36.571Z,2.79
2023-04-27T03:46:39.562Z,2.77
2023-04-27T03:47:42.554Z,2.80
2023-04-27T03:48:47.276Z,2.77
2023-04-27T03:49:50.406Z,2.77
2023-04-27T03:50:53.305Z,2.78
2023-04-27T03:51:56.963Z,2.77
2023-04-27T03:52:59.884Z,2.79
2023-04-27T03:54:02.916Z,2.79
2023-04-27T03:55:07.143Z,2.79
2023-04-27T03:56:10.624Z,2.79
2023-04-27T03:57:13.551Z,2.82
2023-04-27T03:58:17.600Z,2.83
2023-04-27T03:59:39.309Z,2.83
2023-04-27T04:00:42.326Z,2.81
2023-04-27T04:01:45.296Z,2.83
2023-04-27T04:02:48.399Z,2.85
2023-04-27T04:03:51.770Z,2.88
2023-04-27T04:04:55.032Z,2.94
2023-04-27T04:05:57.974Z,2.93
2023-04-27T04:07:00.949Z,2.95
2023-04-27T04:08:03.984Z,3.01
2023-04-27T04:09:06.999Z,3.01
2023-04-27T04:10:11.036Z,3.02
2023-04-27T04:11:13.971Z,3.04
2023-04-27T04:12:17.022Z,3.11
2023-04-27T04:13:19.931Z,3.09
2023-04-27T04:14:23.024Z,3.11
2023-04-27T04:15:26.303Z,3.12
2023-04-27T04:16:29.464Z,3.17
2023-04-27T04:17:34.175Z,3.18
2023-04-27T04:18:38.386Z,3.20
2023-04-27T04:19:41.730Z,3.26
2023-04-27T04:20:44.679Z,3.27
2023-04-27T04:21:47.633Z,3.27
2023-04-27T04:22:50.727Z,3.28
2023-04-27T04:23:53.597Z,3.31
2023-04-27T04:24:56.890Z,3.35
2023-04-27T04:25:59.985Z,3.34
2023-04-27T04:27:06.233Z,3.41
2023-04-27T04:28:09.151Z,3.41
2023-04-27T04:29:12.361Z,3.41
2023-04-27T04:30:16.007Z,3.46
2023-04-27T04:31:19.126Z,3.49
2023-04-27T04:32:23.107Z,3.51
2023-04-27T04:33:26.470Z,3.52
2023-04-27T04:34:29.383Z,3.54
2023-04-27T04:35:33.208Z,3.58
2023-04-27T04:36:36.275Z,3.57
2023-04-27T04:37:39.341Z,3.60
2023-04-27T04:38:42.237Z,3.65
2023-04-27T04:39:45.600Z,3.65
2023-04-27T04:40:48.606Z,3.69
2023-04-27T04:41:51.669Z,3.70
2023-04-27T04:42:54.918Z,3.70
2023-04-27T04:43:58.000Z,3.73
2023-04-27T04:45:01.063Z,3.77
2023-04-27T04:46:03.988Z,3.79
2023-04-27T04:47:06.860Z,3.84
2023-04-27T04:48:10.418Z,3.85
2023-04-27T04:49:13.528Z,3.87
2023-04-27T04:50:16.659Z,3.89
2023-04-27T04:51:19.509Z,3.92
2023-04-27T04:52:22.837Z,3.95
2023-04-27T04:53:26.287Z,3.98
2023-04-27T04:54:31.838Z,4.06
2023-04-27T04:55:34.751Z,4.06
2023-04-27T04:56:37.949Z,4.09
2023-04-27T04:57:41.057Z,4.13
2023-04-27T04:58:44.013Z,4.19
2023-04-27T04:59:46.872Z,4.23
2023-04-27T05:00:49.825Z,4.29
2023-04-27T05:01:56.025Z,4.32
2023-04-27T05:02:59.163Z,4.36
2023-04-27T05:04:02.431Z,4.39
2023-04-27T05:05:05.640Z,4.41
2023-04-27T05:06:08.613Z,4.45
2023-04-27T05:07:14.698Z,4.47
2023-04-27T05:08:17.962Z,4.51
2023-04-27T05:09:20.796Z,4.54
2023-04-27T05:10:23.692Z,4.58
2023-04-27T05:11:26.968Z,4.61
2023-04-27T05:12:29.860Z,4.66
2023-04-27T05:13:32.729Z,4.70
2023-04-27T05:14:35.886Z,4.73
2023-04-27T05:15:38.784Z,4.77
2023-04-27T05:16:41.833Z,4.81
2023-04-27T05:17:44.998Z,4.83
2023-04-27T05:18:47.851Z,4.86
2023-04-27T05:19:50.917Z,4.89
2023-04-27T05:20:53.784Z,4.93
2023-04-27T05:21:57.609Z,4.97
2023-04-27T05:23:00.462Z,5.02
2023-04-27T05:24:03.508Z,5.06
2023-04-27T05:25:06.719Z,5.11
2023-04-27T05:26:17.435Z,5.17
2023-04-27T05:27:20.718Z,5.21
2023-04-27T05:28:23.607Z,5.27
2023-04-27T05:29:27.723Z,5.32
2023-04-27T05:30:31.011Z,5.38
2023-04-27T05:31:34.455Z,5.42
2023-04-27T05:32:37.843Z,5.45
2023-04-27T05:33:40.759Z,5.49
2023-04-27T05:34:46.717Z,5.54
2023-04-27T05:35:51.075Z,5.58
2023-04-27T05:36:53.968Z,5.66
2023-04-27T05:37:57.789Z,5.73
2023-04-27T05:39:00.656Z,5.81
2023-04-27T05:40:06.091Z,5.88
2023-04-27T05:41:09.362Z,5.97
2023-04-27T05:42:12.225Z,6.05
2023-04-27T05:43:15.299Z,6.11
2023-04-27T05:44:18.220Z,6.17
2023-04-27T05:45:21.768Z,6.23
2023-04-27T05:46:24.774Z,6.29
2023-04-27T05:47:27.741Z,6.36
2023-04-27T05:48:31.123Z,6.43
2023-04-27T05:49:33.980Z,6.48
2023-04-27T05:50:36.925Z,6.52
2023-04-27T05:51:39.789Z,6.57
2023-04-27T05:52:42.662Z,6.60
2023-04-27T05:53:45.561Z,6.66
2023-04-27T05:54:49.898Z,6.72
2023-04-27T05:55:52.771Z,6.80
2023-04-27T05:56:55.757Z,6.88
2023-04-27T05:58:07.525Z,6.94
2023-04-27T05:59:12.192Z,7.01
2023-04-27T06:00:16.633Z,7.05
2023-04-27T06:01:19.749Z,7.10
2023-04-27T06:02:23.264Z,7.15
2023-04-27T06:03:27.234Z,7.18
2023-04-27T06:04:32.905Z,7.26
2023-04-27T06:05:36.062Z,7.27
2023-04-27T06:06:39.190Z,7.29
2023-04-27T06:07:43.824Z,7.40
2023-04-27T06:08:46.692Z,7.53
2023-04-27T06:09:49.556Z,7.65
2023-04-27T06:10:52.597Z,7.81
2023-04-27T06:11:55.624Z,7.94
2023-04-27T06:12:58.426Z,8.00
2023-04-27T06:14:01.283Z,8.06
2023-04-27T06:15:08.565Z,8.12
2023-04-27T06:16:11.499Z,8.19
2023-04-27T06:17:14.494Z,8.22
2023-04-27T06:18:17.373Z,8.35
2023-04-27T06:19:21.037Z,8.51
2023-04-27T06:20:24.043Z,8.62
2023-04-27T06:21:27.002Z,8.71
2023-04-27T06:22:29.811Z,8.76
2023-04-27T06:23:32.757Z,8.86
2023-04-27T06:24:36.622Z,8.90
2023-04-27T06:25:40.699Z,9.00
2023-04-27T06:26:43.568Z,9.10
2023-04-27T06:27:46.570Z,9.21
2023-04-27T06:28:49.402Z,9.33
2023-04-27T06:29:53.882Z,9.45
2023-04-27T06:30:56.725Z,9.53
2023-04-27T06:31:59.754Z,9.60
2023-04-27T06:33:03.112Z,9.70
2023-04-27T06:34:06.746Z,9.80
2023-04-27T06:35:09.826Z,9.84
2023-04-27T06:36:12.757Z,9.93
2023-04-27T06:37:17.330Z,9.99
2023-04-27T06:38:20.275Z,10.10
2023-04-27T06:39:23.118Z,10.22
2023-04-27T06:40:27.019Z,10.35
2023-04-27T06:41:29.936Z,10.51
2023-04-27T06:42:32.801Z,10.77
2023-04-27T06:43:35.772Z,11.05
2023-04-27T06:44:39.101Z,11.39
2023-04-27T06:45:42.892Z,11.58
2023-04-27T06:46:45.954Z,11.74
2023-04-27T06:47:49.025Z,11.96
2023-04-27T06:48:52.813Z,12.15
2023-04-27T06:49:55.659Z,12.36
2023-04-27T06:50:58.561Z,12.56
2023-04-27T06:52:03.085Z,12.66
2023-04-27T06:53:06.013Z,12.72
2023-04-27T06:54:08.942Z,12.84
2023-04-27T06:55:11.850Z,12.80
2023-04-27T06:56:14.731Z,12.79
2023-04-27T06:57:17.604Z,12.75
2023-04-27T06:58:20.467Z,12.82
2023-04-27T06:59:23.417Z,12.86
2023-04-27T07:00:27.232Z,12.98
2023-04-27T07:01:30.350Z,13.08
2023-04-27T07:02:33.366Z,13.18
2023-04-27T07:03:36.896Z,13.28
2023-04-27T07:04:40.311Z,13.44
2023-04-27T07:05:43.385Z,13.55
2023-04-27T07:06:46.442Z,13.65
2023-04-27T07:07:49.418Z,13.65
2023-04-27T07:08:52.286Z,13.68
2023-04-27T07:09:55.149Z,13.77
2023-04-27T07:10:58.430Z,13.85
2023-04-27T07:12:01.453Z,13.78
2023-04-27T07:13:05.844Z,13.74
2023-04-27T07:14:10.368Z,13.73
2023-04-27T07:15:13.494Z,13.77
2023-04-27T07:16:16.904Z,13.78
2023-04-27T07:17:19.940Z,13.88
2023-04-27T07:18:22.896Z,13.91
2023-04-27T07:19:26.189Z,13.86
2023-04-27T07:20:29.111Z,13.83
2023-04-27T07:21:32.058Z,13.84
2023-04-27T07:22:34.879Z,14.09
2023-04-27T07:23:39.962Z,14.23
2023-04-27T07:24:42.835Z,14.47
2023-04-27T07:25:46.403Z,14.37
2023-04-27T07:26:49.330Z,14.23
2023-04-27T07:27:52.508Z,14.16
2023-04-27T07:28:56.664Z,14.10
2023-04-27T07:29:59.631Z,14.03
2023-04-27T07:31:04.947Z,14.05
2023-04-27T07:32:09.030Z,14.06
2023-04-27T07:33:13.303Z,14.16
2023-04-27T07:34:16.188Z,14.27
2023-04-27T07:35:19.355Z,14.31
2023-04-27T07:36:22.258Z,14.35
2023-04-27T07:37:25.097Z,14.38
2023-04-27T07:38:29.710Z,14.31
2023-04-27T07:39:32.540Z,14.25
2023-04-27T07:40:35.487Z,14.20
2023-04-27T07:41:39.259Z,14.22
2023-04-27T07:42:42.993Z,14.24
2023-04-27T07:43:46.075Z,14.26
2023-04-27T07:44:54.122Z,14.25
2023-04-27T07:45:58.449Z,14.34
2023-04-27T07:47:08.196Z,14.48
2023-04-27T07:48:11.233Z,14.48
2023-04-27T07:49:15.613Z,14.33
2023-04-27T07:50:24.440Z,14.22
2023-04-27T07:51:28.884Z,14.26
2023-04-27T07:52:32.141Z,14.25
2023-04-27T07:53:36.076Z,14.24
2023-04-27T07:54:40.195Z,14.25
2023-04-27T07:55:46.091Z,14.25
2023-04-27T07:56:49.063Z,14.36
2023-04-27T07:57:58.277Z,14.52
2023-04-27T07:59:01.445Z,14.62
2023-04-27T08:00:07.429Z,14.63
2023-04-27T08:01:15.859Z,14.77
2023-04-27T08:02:20.095Z,14.91
2023-04-27T08:03:23.982Z,14.98
2023-04-27T08:04:27.380Z,15.02
2023-04-27T08:05:30.863Z,14.97
2023-04-27T08:06:35.580Z,14.88
2023-04-27T08:07:44.155Z,14.86
2023-04-27T08:08:47.846Z,14.86
2023-04-27T08:09:52.550Z,14.76
2023-04-27T08:10:55.514Z,14.76
2023-04-27T08:11:58.572Z,14.79
2023-04-27T08:13:01.643Z,14.82
2023-04-27T08:14:04.524Z,14.83
2023-04-27T08:15:08.333Z,14.79
2023-04-27T08:16:11.493Z,14.80
2023-04-27T08:17:14.511Z,14.90
2023-04-27T08:18:18.087Z,14.99
2023-04-27T08:19:21.661Z,15.05
2023-04-27T08:20:24.563Z,15.02
2023-04-27T08:21:28.694Z,14.95
2023-04-27T08:22:31.625Z,14.89
2023-04-27T08:23:34.617Z,14.84
2023-04-27T08:24:37.577Z,14.79
2023-04-27T08:25:40.429Z,14.66
2023-04-27T08:26:43.262Z,14.48
2023-04-27T08:27:46.132Z,14.34
2023-04-27T08:28:49.475Z,14.25
2023-04-27T08:29:52.643Z,14.15
2023-04-27T08:30:55.634Z,14.02
2023-04-27T08:32:00.908Z,13.88
2023-04-27T08:33:04.010Z,13.79
2023-04-27T08:34:06.944Z,13.74
2023-04-27T08:35:10.050Z,13.75
2023-04-27T08:36:12.920Z,13.77
2023-04-27T08:37:15.822Z,13.76
2023-04-27T08:38:19.429Z,13.66
2023-04-27T08:39:23.979Z,13.59
2023-04-27T08:40:27.318Z,13.63
2023-04-27T08:41:30.407Z,13.77
2023-04-27T08:42:33.404Z,13.77
2023-04-27T08:43:36.838Z,13.73
2023-04-27T08:44:44.611Z,13.56
2023-04-27T08:45:50.243Z,13.39
2023-04-27T08:46:53.176Z,13.37
2023-04-27T08:47:56.167Z,13.39
2023-04-27T08:48:59.129Z,13.44
2023-04-27T08:50:03.848Z,13.40
2023-04-27T08:51:11.151Z,13.31
2023-04-27T08:52:15.421Z,13.21
2023-04-27T08:53:22.274Z,13.14
2023-04-27T08:54:25.165Z,13.07
2023-04-27T08:55:28.242Z,13.04
2023-04-27T08:56:31.373Z,13.00
2023-04-27T08:57:34.192Z,12.93
2023-04-27T08:58:37.897Z,12.85
2023-04-27T08:59:41.719Z,12.73
2023-04-27T09:00:46.171Z,12.65
2023-04-27T09:01:49.985Z,12.58
2023-04-27T09:02:53.201Z,12.55
2023-04-27T09:04:01.626Z,12.58
2023-04-27T09:05:06.553Z,12.75
2023-04-27T09:06:09.688Z,12.93
2023-04-27T09:07:17.998Z,13.16
2023-04-27T09:08:21.038Z,13.45
2023-04-27T09:09:25.492Z,13.62
2023-04-27T09:10:31.516Z,13.80
2023-04-27T09:11:38.173Z,13.88
2023-04-27T09:12:41.062Z,13.83
2023-04-27T09:13:45.572Z,13.77
2023-04-27T09:14:59.647Z,13.76
2023-04-27T09:16:02.752Z,13.87
2023-04-27T09:17:05.798Z,14.13
2023-04-27T09:18:15.685Z,14.42
2023-04-27T09:19:27.710Z,14.65
2023-04-27T09:20:30.932Z,14.86
2023-04-27T09:21:34.003Z,14.96
2023-04-27T09:22:47.584Z,15.03
2023-04-27T09:23:51.276Z,15.13
2023-04-27T09:24:54.256Z,15.29
2023-04-27T09:25:58.903Z,15.47
2023-04-27T09:27:03.267Z,15.60
2023-04-27T09:28:08.266Z,15.78
2023-04-27T09:29:11.257Z,15.81
2023-04-27T09:30:15.376Z,15.71
2023-04-27T09:31:18.922Z,15.47
2023-04-27T09:32:21.779Z,15.36
2023-04-27T09:33:32.922Z,15.30
2023-04-27T09:34:40.845Z,15.20
2023-04-27T09:35:45.829Z,15.05
2023-04-27T09:36:49.002Z,14.84
2023-04-27T09:37:53.457Z,14.67
2023-04-27T09:38:56.329Z,14.52
2023-04-27T09:39:59.186Z,14.37
2023-04-27T09:41:03.138Z,14.25
2023-04-27T09:42:06.334Z,14.12
2023-04-27T09:43:09.858Z,13.98
2023-04-27T09:44:14.237Z,13.78
2023-04-27T09:45:17.711Z,13.61
2023-04-27T09:46:23.573Z,13.48
2023-04-27T09:47:28.805Z,13.28
2023-04-27T09:48:32.004Z,13.15
2023-04-27T09:49:35.220Z,13.05
2023-04-27T09:50:41.057Z,12.90
2023-04-27T09:51:44.029Z,12.71
2023-04-27T09:52:47.222Z,12.44
2023-04-27T09:53:54.339Z,12.13
2023-04-27T09:54:58.947Z,11.83
2023-04-27T09:56:28.459Z,11.55
2023-04-27T09:57:39.649Z,11.21
2023-04-27T09:59:09.891Z,10.92
2023-04-27T10:00:42.714Z,10.66
2023-04-27T10:01:48.841Z,10.38
2023-04-27T10:03:10.208Z,10.17
2023-04-27T10:04:28.410Z,9.97
2023-04-27T10:05:50.317Z,9.82
2023-04-27T10:07:00.490Z,9.68
2023-04-27T10:08:05.346Z,9.63
2023-04-27T10:09:08.898Z,9.54
2023-04-27T10:10:18.854Z,9.51
2023-04-27T10:11:23.110Z,9.50
2023-04-27T10:12:36.561Z,9.51
2023-04-27T10:13:39.586Z,9.51
2023-04-27T10:15:16.360Z,9.55
2023-04-27T10:16:20.081Z,9.54
2023-04-27T10:17:33.149Z,9.58
2023-04-27T10:18:36.184Z,9.56
2023-04-27T10:19:39.035Z,9.60
2023-04-27T10:20:42.060Z,9.62
2023-04-27T10:22:00.576Z,9.65
2023-04-27T10:23:04.641Z,9.66
2023-04-27T10:24:09.199Z,9.64
2023-04-27T10:25:18.370Z,9.66
2023-04-27T10:26:25.621Z,9.68
2023-04-27T10:27:28.445Z,9.70
2023-04-27T10:28:40.300Z,9.74
2023-04-27T10:29:46.262Z,9.77
2023-04-27T10:30:49.745Z,9.80
2023-04-27T10:31:52.770Z,9.81
2023-04-27T10:33:04.200Z,9.87
2023-04-27T10:34:11.648Z,9.96
2023-04-27T10:35:14.576Z,10.05
2023-04-27T10:36:17.679Z,10.08
2023-04-27T10:37:22.126Z,10.10
2023-04-27T10:38:29.964Z,10.20
2023-04-27T10:39:47.526Z,10.29
2023-04-27T10:41:02.612Z,10.35
2023-04-27T10:42:06.592Z,10.45
2023-04-27T10:43:27.930Z,10.63
2023-04-27T10:44:33.494Z,10.69
2023-04-27T10:45:36.402Z,10.80
2023-04-27T10:46:50.605Z,10.83
2023-04-27T10:47:59.359Z,10.89
2023-04-27T10:49:05.646Z,11.03
2023-04-27T10:50:11.643Z,11.09
2023-04-27T10:51:20.328Z,11.21
2023-04-27T10:52:25.852Z,11.25
2023-04-27T10:53:34.939Z,11.32
2023-04-27T10:54:39.592Z,11.36
2023-04-27T10:55:42.725Z,11.40
2023-04-27T10:56:45.951Z,11.42
2023-04-27T10:57:50.073Z,11.49
2023-04-27T10:58:52.989Z,11.60
2023-04-27T10:59:56.108Z,11.65
2023-04-27T11:00:58.925Z,11.76
2023-04-27T11:02:02.003Z,11.88
2023-04-27T11:03:19.747Z,11.92
2023-04-27T11:04:22.839Z,11.97
2023-04-27T11:05:33.120Z,12.04
2023-04-27T11:06:43.018Z,12.05
2023-04-27T11:07:48.019Z,12.12
2023-04-27T11:08:51.039Z,12.22
2023-04-27T11:09:54.145Z,12.34
2023-04-27T11:10:57.328Z,12.51
2023-04-27T11:12:00.763Z,12.64
2023-04-27T11:13:09.365Z,12.76
2023-04-27T11:14:19.869Z,12.86
2023-04-27T11:15:22.741Z,12.94
2023-04-27T11:16:26.021Z,13.00
2023-04-27T11:17:30.168Z,13.00
2023-04-27T11:18:35.993Z,12.96
2023-04-27T11:19:48.793Z,12.90
2023-04-27T11:20:54.274Z,12.85
2023-04-27T11:22:04.841Z,12.83
2023-04-27T11:23:11.205Z,12.86
2023-04-27T11:24:15.505Z,12.86
2023-04-27T11:25:27.792Z,12.85
2023-04-27T11:26:30.758Z,12.79
2023-04-27T11:27:38.658Z,12.77
2023-04-27T11:28:45.927Z,12.76
2023-04-27T11:29:48.922Z,12.80
2023-04-27T11:30:59.231Z,12.84
2023-04-27T11:32:02.783Z,12.83
2023-04-27T11:33:08.592Z,12.84
2023-04-27T11:34:16.370Z,12.83
2023-04-27T11:35:19.321Z,12.75
2023-04-27T11:36:23.914Z,12.72
2023-04-27T11:37:27.827Z,12.69
2023-04-27T11:38:34.491Z,12.72
2023-04-27T11:39:39.000Z,12.71
2023-04-27T11:40:42.775Z,12.75
2023-04-27T11:41:46.598Z,12.79
2023-04-27T11:42:58.222Z,12.78
2023-04-27T11:44:07.790Z,12.76
2023-04-27T11:45:12.363Z,12.70
2023-04-27T11:46:15.493Z,12.67
2023-04-27T11:47:19.393Z,12.72
2023-04-27T11:48:27.159Z,12.77
2023-04-27T11:49:30.106Z,12.79
2023-04-27T11:50:33.131Z,12.94
2023-04-27T11:51:36.452Z,13.04
2023-04-27T11:52:42.488Z,13.10
2023-04-27T11:53:48.328Z,13.15
2023-04-27T11:54:53.730Z,13.17
2023-04-27T11:55:56.597Z,13.21
2023-04-27T11:57:07.218Z,13.27
2023-04-27T11:58:16.663Z,13.29
2023-04-27T11:59:21.627Z,13.28
2023-04-27T12:00:24.854Z,13.22
2023-04-27T12:01:36.895Z,13.18
2023-04-27T12:02:42.459Z,13.10
2023-04-27T12:03:46.053Z,13.08
2023-04-27T12:04:52.270Z,13.17
2023-04-27T12:05:55.988Z,13.15
2023-04-27T12:07:02.016Z,13.20
2023-04-27T12:08:05.571Z,13.22
2023-04-27T12:09:08.999Z,13.31
2023-04-27T12:10:12.570Z,13.37
2023-04-27T12:11:15.543Z,13.43
2023-04-27T12:12:19.409Z,13.48
2023-04-27T12:13:22.677Z,13.57
2023-04-27T12:14:26.128Z,13.70
2023-04-27T12:15:28.972Z,13.85
2023-04-27T12:16:31.950Z,13.94
2023-04-27T12:17:35.093Z,14.04
2023-04-27T12:18:38.022Z,14.15
2023-04-27T12:19:41.080Z,14.27
2023-04-27T12:20:43.968Z,14.33
2023-04-27T12:21:46.953Z,14.37
2023-04-27T12:22:50.244Z,14.43
2023-04-27T12:23:53.196Z,14.51
2023-04-27T12:24:56.317Z,14.55
2023-04-27T12:25:59.266Z,14.55
2023-04-27T12:27:03.995Z,14.58
2023-04-27T12:28:07.375Z,14.60
2023-04-27T12:29:11.249Z,14.63
2023-04-27T12:30:14.941Z,14.66
2023-04-27T12:31:23.231Z,14.69
2023-04-27T12:32:28.140Z,14.66
2023-04-27T12:33:31.915Z,14.59
2023-04-27T12:34:35.958Z,14.53
2023-04-27T12:35:38.887Z,14.43
2023-04-27T12:36:41.783Z,14.32
2023-04-27T12:37:44.945Z,14.27
2023-04-27T12:38:47.943Z,14.20
2023-04-27T12:39:50.871Z,14.10
2023-04-27T12:40:53.895Z,14.01
2023-04-27T12:41:58.351Z,13.92
2023-04-27T12:43:01.601Z,13.82
2023-04-27T12:44:04.595Z,13.70
2023-04-27T12:45:08.491Z,13.61
2023-04-27T12:46:11.696Z,13.53
2023-04-27T12:47:27.864Z,13.47
2023-04-27T12:48:37.689Z,13.39
2023-04-27T12:49:40.630Z,13.31
2023-04-27T12:50:44.189Z,13.28
2023-04-27T12:51:48.066Z,13.27
2023-04-27T12:52:51.444Z,13.26
2023-04-27T12:53:54.825Z,13.28
2023-04-27T12:54:59.377Z,13.28
2023-04-27T12:56:03.141Z,13.32
2023-04-27T12:57:06.848Z,13.31
2023-04-27T12:58:09.872Z,13.34
2023-04-27T12:59:13.445Z,13.40
2023-04-27T13:00:16.785Z,13.38
2023-04-27T13:01:21.538Z,13.42
2023-04-27T13:02:24.553Z,13.40
2023-04-27T13:03:27.769Z,13.42
2023-04-27T13:04:31.550Z,13.46
2023-04-27T13:05:34.561Z,13.49
2023-04-27T13:06:37.520Z,13.55
2023-04-27T13:07:40.518Z,13.62
2023-04-27T13:08:47.271Z,13.72
2023-04-27T13:09:50.142Z,13.70
2023-04-27T13:10:53.263Z,13.68
2023-04-27T13:11:56.174Z,13.64
2023-04-27T13:12:59.775Z,13.61
2023-04-27T13:14:02.626Z,13.58
2023-04-27T13:15:07.863Z,13.61
2023-04-27T13:16:11.917Z,13.66
2023-04-27T13:17:14.924Z,13.63
2023-04-27T13:18:17.761Z,13.63
2023-04-27T13:19:20.687Z,13.63
2023-04-27T13:20:23.565Z,13.62
2023-04-27T13:21:27.041Z,13.58
2023-04-27T13:22:31.160Z,13.53
2023-04-27T13:23:34.745Z,13.50
2023-04-27T13:24:37.963Z,13.49
2023-04-27T13:25:41.129Z,13.49
2023-04-27T13:26:44.049Z,13.48
2023-04-27T13:27:46.958Z,13.43
2023-04-27T13:28:49.968Z,13.33
2023-04-27T13:29:52.849Z,13.27
2023-04-27T13:30:56.345Z,13.23
2023-04-27T13:31:59.989Z,13.18
2023-04-27T13:33:18.705Z,13.13
2023-04-27T13:34:24.616Z,13.01
2023-04-27T13:35:27.673Z,12.95
2023-04-27T13:36:30.631Z,12.93
2023-04-27T13:37:33.527Z,12.88
2023-04-27T13:38:36.682Z,12.80
2023-04-27T13:39:39.666Z,12.77
2023-04-27T13:40:42.706Z,12.74
2023-04-27T13:41:46.142Z,12.73
2023-04-27T13:42:49.281Z,12.61
2023-04-27T13:43:52.412Z,12.51
2023-04-27T13:44:56.888Z,12.51
2023-04-27T13:46:01.693Z,12.43
2023-04-27T13:47:05.288Z,12.40
2023-04-27T13:48:08.813Z,12.35
2023-04-27T13:49:11.875Z,12.35
2023-04-27T13:50:14.834Z,12.35
2023-04-27T13:51:17.834Z,12.29
2023-04-27T13:52:20.780Z,12.29
2023-04-27T13:53:27.002Z,12.28
2023-04-27T13:54:29.942Z,12.23
2023-04-27T13:55:32.933Z,12.22
2023-04-27T13:56:35.929Z,12.25
2023-04-27T13:57:38.927Z,12.22
2023-04-27T13:58:41.860Z,12.24
2023-04-27T13:59:45.085Z,12.27
2023-04-27T14:00:48.531Z,12.31
2023-04-27T14:01:51.411Z,12.34